Portada
METAR-TAF:

METAR-TAF

Aeroports :

Donau

Neuburg, Alemanya

latitud: 48-43N, longitud: 011-13E, altitud: 380 m

Observació

L'informe es va fer fa 1 hora i 14 minuts, a les 22:20 UTC
Vent 1 kt amb direcció variable
Temperatura 6°C
Humitat 65%
Pressió 1020 hPa
Visibilitat 10 km o més
Cel ennuvolat a una alçada de 7000 ft

METAR: ETSN 032220Z VRB01KT 9999 BKN070 06/00 Q1020 BLU

Hora: 01:34 (23:34 UTC)

Pronòstic

L'informe es va fer fa 48 minuts, a les 22:46 UTC
Pronòstic vàlid del 03 a les 23 UTC al 04 a les 08 UTC
Vent 2 kt amb direcció variable
Visibilitat 10 km o més
Cel ennuvolat a una alçada de 7000 ft
Evolucionant progressivament
l' 04 a les 02 UTC al 04 a les 04 UTC
Vent 3 kt amb direcció variable
Visibilitat 10 km o més
Escasses núvols a una alçada de 7000 ft

TAF: ETSN 032246Z 0323/0408 VRB02KT 9999 NSW BKN070 BECMG 0402/0404 VRB03KT 9999 NSW FEW070 BY ETGL

Observacions i pronòstics meteorològics de més de 4000 aeroports (METAR i TAF).

Les estacions disponibles són els punts grocs i vermells al mapa.

Posi el ratolí al punt desitjat per veure el nom de l'estació.

Feu clic per veure les observacions i els pronòstics meteorològics.

Per canviar el mapa: feu clic els botons verds amb una creu de color negre per apropar; al botó verd amb un guió per allunyar la imatge; o en les fletxes verdes per a mapes adjacents.


METAR-TAF: